createdAt,value
2023-04-12T00:02:46.723Z,0
2023-04-12T00:07:53.006Z,0
2023-04-12T00:12:59.457Z,0
2023-04-12T00:18:05.815Z,0
2023-04-12T00:23:12.229Z,0
2023-04-12T00:28:18.684Z,0
2023-04-12T00:33:25.044Z,0
2023-04-12T00:38:31.518Z,0
2023-04-12T00:43:37.872Z,0
2023-04-12T00:48:44.325Z,0
2023-04-12T00:53:50.869Z,0
2023-04-12T00:58:57.145Z,0
2023-04-12T01:04:03.531Z,0
2023-04-12T01:09:09.950Z,0
2023-04-12T01:14:16.529Z,0
2023-04-12T01:19:22.789Z,0
2023-04-12T01:24:29.245Z,0
2023-04-12T01:29:35.618Z,0
2023-04-12T01:34:42.027Z,0
2023-04-12T01:39:48.431Z,0
2023-04-12T01:44:54.940Z,0
2023-04-12T01:50:01.266Z,0
2023-04-12T01:55:07.677Z,0
2023-04-12T02:00:14.105Z,0
2023-04-12T02:05:20.490Z,0
2023-04-12T02:10:26.902Z,0
2023-04-12T02:15:33.406Z,0
2023-04-12T02:20:39.735Z,0
2023-04-12T02:25:46.282Z,0
2023-04-12T02:30:52.568Z,0
2023-04-12T02:35:59.017Z,0
2023-04-12T02:41:05.403Z,0
2023-04-12T02:46:11.808Z,0
2023-04-12T02:51:18.239Z,0
2023-04-12T02:56:24.688Z,0
2023-04-12T03:01:31.053Z,0
2023-04-12T03:06:37.524Z,0
2023-04-12T03:11:43.877Z,0
2023-04-12T03:16:50.326Z,0
2023-04-12T03:21:56.698Z,0
2023-04-12T03:27:03.112Z,0
2023-04-12T03:32:09.533Z,0
2023-04-12T03:37:15.938Z,0
2023-04-12T03:42:22.399Z,0
2023-04-12T03:47:28.773Z,0
2023-04-12T03:52:35.379Z,0
2023-04-12T03:57:41.629Z,0
2023-04-12T04:02:48.057Z,0
2023-04-12T04:07:54.422Z,1
2023-04-12T04:13:00.700Z,2
2023-04-12T04:18:07.024Z,4
2023-04-12T04:23:13.326Z,1
2023-04-12T04:28:19.621Z,3
2023-04-12T04:33:25.923Z,6
2023-04-12T04:38:32.234Z,24
2023-04-12T04:43:38.544Z,52
2023-04-12T04:48:44.850Z,51
2023-04-12T04:53:51.183Z,65
2023-04-12T04:58:57.463Z,76
2023-04-12T05:04:03.775Z,56
2023-04-12T05:09:10.141Z,128
2023-04-12T05:14:16.373Z,146
2023-04-12T05:19:22.711Z,221
2023-04-12T05:24:29.026Z,298
2023-04-12T05:29:35.290Z,431
2023-04-12T05:34:41.589Z,548
2023-04-12T05:39:47.923Z,613
2023-04-12T05:44:54.225Z,761
2023-04-12T05:50:00.522Z,851
2023-04-12T05:55:06.827Z,730
2023-04-12T06:00:13.244Z,626
2023-04-12T06:05:19.496Z,490
2023-04-12T06:10:25.745Z,512
2023-04-12T06:15:32.207Z,624
2023-04-12T06:20:38.430Z,901
2023-04-12T06:25:44.700Z,963
2023-04-12T06:30:51.126Z,1110
2023-04-12T06:35:57.279Z,1085
2023-04-12T06:41:03.579Z,1426
2023-04-12T06:46:10.020Z,1690
2023-04-12T06:51:16.239Z,1517
2023-04-12T06:56:22.497Z,1463
2023-04-12T07:01:28.892Z,1461
2023-04-12T07:06:35.138Z,1470
2023-04-12T07:11:41.416Z,1451
2023-04-12T07:16:47.733Z,1464
2023-04-12T07:21:54.082Z,1419
2023-04-12T07:27:00.379Z,1442
2023-04-12T07:32:06.645Z,1430
